Flight Track Log - Related Links

Times and Time Zones

All times are in EDT time to prevent confusion due to time zone crossing. See the KAP5 flight status page for this flight to view local times or setup timezone preferences in your user account.

Time Position Orientation Groundspeed Altitude Reporting Facility
EDT Latitude Longitude Course Direction KTS MPH feet Rate Location/Type
Wed 11:54:00 AM 43.3682 -72.6725 129° Southeast  Level Estimated
Wed 11:55:00 AM 43.3412 -72.6265 129° Southeast  Level Estimated
Wed 11:56:00 AM 43.3141 -72.5805 129° Southeast  Level Estimated
Wed 11:56:53 AM 43.5775 -72.9706 North 138 159 4,800  Level Boston Center
Wed 11:57:00 AM 43.2871 -72.5345 129° Southeast  Level Estimated
Wed 11:57:57 AM 43.6181 -72.9669 North 142 163 5,500  Level Boston Center
Wed 11:58:00 AM 43.2600 -72.4886 129° Southeast  Level Estimated
Wed 11:58:58 AM 43.6653 -72.9603 North 142 163 6,100  Level Boston Center
Wed 11:59:00 AM 43.2329 -72.4427 129° Southeast  Level Estimated
Wed 12:00:00 PM 43.2058 -72.3969 129° Southeast  Level Estimated
Wed 12:00:02 PM 43.6911 -72.9203 48° Northeast 159 183 6,800  Level Boston Center
Wed 12:01:00 PM 43.1787 -72.3511 129° Southeast  Level Estimated
Wed 12:01:02 PM 43.6719 -72.8603 114° Southeast 163 188 7,000  Level Boston Center
Wed 12:02:06 PM 43.6531 -72.7961 112° Southeast 171 197 7,100  Climbing Boston Center
Wed 12:03:06 PM 43.6256 -72.7325 121° Southeast 187 215 7,000 -48 Descending Boston Center
Wed 12:04:10 PM 43.6047 -72.6658 113° Southeast 188 216 7,000  Level Boston Center
Wed 12:05:11 PM 43.5833 -72.6011 115° Southeast 188 216 7,000  Level Boston Center
Wed 12:06:12 PM 43.5606 -72.5383 117° Southeast 188 216 7,000 240 Level Boston Center
Wed 12:07:16 PM 43.5389 -72.4764 116° Southeast 184 212 7,500 677 Climbing Boston Center
Wed 12:08:16 PM 43.5161 -72.4117 116° Southeast 166 191 8,400 726 Climbing Boston Center
Wed 12:09:20 PM 43.4922 -72.3653 125° Southeast 155 178 9,000 333 Climbing Boston Center
Wed 12:10:22 PM 43.4622 -72.3150 129° Southeast 167 192 9,100  Climbing Boston Center
Wed 12:11:22 PM 43.4303 -72.2586 128° Southeast 181 208 9,000 -48 Descending Boston Center
Wed 12:12:26 PM 43.3900 -72.1919 130° Southeast 192 221 9,000  Level Boston Center
Wed 12:13:27 PM 43.3583 -72.1358 128° Southeast 187 215 9,000 50 Level Boston Center
Wed 12:14:27 PM 43.3233 -72.0761 129° Southeast 187 215 9,100 -144 Climbing Boston Center
Wed 12:15:32 PM 43.2894 -72.0197 130° Southeast 190 219 8,700 -425 Descending Boston Center
Wed 12:16:34 PM 43.2497 -71.9525 129° Southeast 205 236 8,200 -488 Descending Boston Center
Wed 12:17:35 PM 43.2136 -71.8908 129° Southeast 206 237 7,700 -443 Descending Boston Center
Wed 12:18:36 PM 43.1775 -71.8283 128° Southeast 209 241 7,300 -339 Descending Boston Center
Wed 12:19:39 PM 43.1397 -71.7631 128° Southeast 206 237 7,000 -145 Descending Boston Center
Wed 12:20:40 PM 43.1067 -71.7078 129° Southeast 191 220 7,000 -240 Level Boston Center
Wed 12:21:44 PM 43.0700 -71.6464 129° Southeast 194 223 6,500 -435 Descending Boston Center
Wed 12:22:44 PM 43.0344 -71.5872 129° Southeast 198 228 6,100 -242 Descending Boston Center
Wed 12:23:48 PM 42.9986 -71.5275 129° Southeast 193 222 6,000 -48 Descending Boston Center
Wed 12:24:48 PM 42.9683 -71.4750 128° Southeast 180 207 6,000 -50 Level Boston Center
Wed 12:25:49 PM 42.9353 -71.4194 129° Southeast 177 204 5,900 -240 Descending Boston Center
Wed 12:26:53 PM 42.9019 -71.3647 130° Southeast 189 217 5,500 -435 Descending Boston Center
Wed 12:27:53 PM 42.8653 -71.3044 130° Southeast 190 219 5,000 -244 Descending Boston Center
Wed 12:28:56 PM 42.8294 -71.2589 137° Southeast 175 201 5,000  Level Boston Center
Wed 12:29:58 PM 42.7903 -71.2119 139° Southeast 176 203 5,000  Level Boston Center
Wed 12:31:01 PM 42.7544 -71.1694 139° Southeast 175 201 5,000 -144 Level Boston Center
Wed 12:32:03 PM 42.7236 -71.1175 129° Southeast 183 211 4,700 -387 Descending Boston Center
Wed 12:33:05 PM 42.6939 -71.0497 121° Southeast 192 221 4,200 -344 Descending Boston Center
Wed 12:34:05 PM 42.6658 -70.9875 122° Southeast 195 224 4,000 -99 Descending Boston Center
Wed 12:35:06 PM 42.6397 -70.9239 119° Southeast 183 211 4,000  Level Boston Center
Wed 12:36:10 PM 42.6156 -70.8664 120° Southeast 177 204 4,000  Level Boston Center
Wed 12:37:11 PM 42.5917 -70.8086 119° Southeast 177 204 4,000  Level Boston Center
Wed 12:38:15 PM 42.5675 -70.7506 119° Southeast 178 205 4,000  Level Boston Center
Wed 12:39:16 PM 42.5450 -70.6931 118° Southeast 177 204 4,000  Level Boston Center
Wed 12:40:17 PM 42.5128 -70.6467 133° Southeast 169 194 4,000  Level Boston Center
Wed 12:41:18 PM 42.4781 -70.6056 139° Southeast 168 193 4,000 -48 Level Boston Center
Wed 12:42:21 PM 42.4356 -70.6067 181° South 168 193 3,900 -145 Descending Boston Center
Wed 12:43:22 PM 42.4181 -70.6550 244° Southwest 152 175 3,700 -192 Descending Boston Center
Wed 12:44:26 PM 42.4086 -70.7128 258° West 156 180 3,500 -242 Descending Boston Center
Wed 12:45:26 PM 42.3983 -70.7703 256° West 157 181 3,200 -446 Descending Boston Center
Wed 12:46:27 PM 42.3883 -70.8392 259° West 161 185 2,600 -768 Descending Boston Center
Wed 12:47:31 PM 42.3764 -70.9036 256° West 163 188 1,600 -943 Descending Boston Center
Wed 12:48:47 PM 42.3667 -70.9667 258° West 125 144 400 -947 Descending KA90

Login

Don't have an account? Register now (free) for customized features, flight alerts, and more!